createdAt,value
2022-10-10T06:26:36.080Z,10.90
2022-10-10T06:29:13.484Z,11.87
2022-10-10T06:31:50.225Z,12.20
2022-10-10T06:34:27.187Z,13.43
2022-10-10T06:37:03.869Z,14.27
2022-10-10T06:39:40.827Z,13.53
2022-10-10T06:42:20.186Z,14.10
2022-10-10T06:47:37.806Z,13.00
2022-10-10T06:50:14.821Z,11.93
2022-10-10T06:52:51.909Z,12.20
2022-10-10T06:55:29.559Z,11.87
2022-10-10T06:58:08.969Z,13.07
2022-10-10T07:00:51.641Z,12.87
2022-10-10T07:03:28.926Z,11.90
2022-10-10T07:06:06.902Z,10.70
2022-10-10T07:08:44.496Z,11.83
2022-10-10T07:11:21.609Z,11.40
2022-10-10T07:14:01.075Z,11.40
2022-10-10T07:16:38.217Z,10.77
2022-10-10T07:19:15.008Z,11.13
2022-10-10T07:21:52.073Z,10.60
2022-10-10T07:24:29.171Z,11.43
2022-10-10T07:27:08.898Z,10.90
2022-10-10T07:29:48.662Z,10.17
2022-10-10T07:32:25.994Z,9.27
2022-10-10T07:35:02.882Z,9.90
2022-10-10T07:37:40.052Z,10.00
2022-10-10T07:40:17.072Z,9.47
2022-10-10T07:42:54.493Z,9.13
2022-10-10T07:45:34.393Z,9.00
2022-10-10T07:48:11.690Z,9.20
2022-10-10T07:50:49.140Z,8.57
2022-10-10T07:53:26.358Z,9.10
2022-10-10T07:56:03.155Z,8.63
2022-10-10T07:58:40.417Z,9.17
2022-10-10T08:01:20.150Z,8.47
2022-10-10T08:03:59.165Z,9.30
2022-10-10T08:06:35.986Z,8.10
2022-10-10T08:09:13.630Z,9.10
2022-10-10T08:11:50.607Z,7.43
2022-10-10T08:14:27.801Z,8.80
2022-10-10T08:17:07.567Z,9.13
2022-10-10T08:19:44.966Z,8.47
2022-10-10T08:22:21.815Z,7.70
2022-10-10T08:24:59.058Z,8.40
2022-10-10T08:27:35.828Z,7.73
2022-10-10T08:30:14.544Z,7.63
2022-10-10T08:32:54.285Z,8.23
2022-10-10T08:35:31.731Z,7.97
2022-10-10T08:38:09.323Z,8.47
2022-10-10T08:40:50.184Z,8.50
2022-10-10T08:43:35.862Z,8.40
2022-10-10T08:46:21.838Z,8.53
2022-10-10T08:49:13.954Z,7.70
2022-10-10T08:52:04.415Z,7.60
2022-10-10T08:54:43.153Z,8.10
2022-10-10T08:57:29.525Z,8.03
2022-10-10T09:00:11.278Z,7.70
2022-10-10T09:02:57.076Z,7.50
2022-10-10T09:05:56.337Z,6.73
2022-10-10T09:08:50.186Z,6.70
2022-10-10T09:11:47.096Z,6.78
2022-10-10T09:14:38.716Z,5.97
2022-10-10T09:17:30.222Z,5.63
2022-10-10T09:20:21.886Z,5.03
2022-10-10T09:23:06.528Z,5.43
2022-10-10T09:25:51.015Z,5.03
2022-10-10T09:28:42.044Z,4.27
2022-10-10T09:31:24.757Z,4.90
2022-10-10T09:34:07.477Z,4.93
2022-10-10T09:36:45.076Z,4.47
2022-10-10T09:39:35.467Z,4.70
2022-10-10T09:42:17.977Z,3.92
2022-10-10T09:44:55.487Z,4.25
2022-10-10T09:47:32.957Z,4.65
2022-10-10T09:50:10.631Z,3.90
2022-10-10T09:52:49.634Z,3.83
2022-10-10T09:55:36.818Z,4.50
2022-10-10T09:58:26.627Z,4.07
2022-10-10T10:01:20.901Z,5.05
2022-10-10T10:04:29.227Z,3.53
2022-10-10T10:07:23.488Z,4.10
2022-10-10T10:10:05.429Z,3.40
2022-10-10T10:12:47.698Z,3.17
2022-10-10T10:15:27.508Z,3.80
2022-10-10T10:18:27.928Z,3.78
2022-10-10T10:21:23.808Z,3.63
2022-10-10T10:24:03.368Z,3.28
2022-10-10T10:26:50.343Z,3.92
2022-10-10T10:29:37.672Z,2.92
2022-10-10T10:32:26.722Z,3.15
2022-10-10T10:35:31.693Z,3.20
2022-10-10T10:38:37.637Z,3.63
2022-10-10T10:41:24.477Z,3.17
2022-10-10T10:44:21.768Z,3.53
2022-10-10T10:47:20.612Z,3.40
2022-10-10T10:50:18.811Z,3.60
2022-10-10T10:53:03.370Z,3.40
2022-10-10T10:55:48.891Z,3.42
2022-10-10T11:02:01.635Z,3.10
2022-10-10T11:05:24.834Z,3.33
2022-10-10T11:08:36.914Z,3.50
2022-10-10T11:11:43.922Z,3.38
2022-10-10T11:14:43.723Z,3.40
2022-10-10T11:17:27.103Z,3.67
2022-10-10T11:20:18.581Z,3.10
2022-10-10T11:23:07.994Z,3.03
2022-10-10T11:25:53.292Z,3.03
2022-10-10T11:28:36.259Z,3.10
2022-10-10T11:31:20.733Z,3.20
2022-10-10T11:34:03.074Z,3.53
2022-10-10T11:36:47.643Z,2.92
2022-10-10T11:39:32.534Z,2.97
2022-10-10T11:42:18.553Z,3.30
2022-10-10T11:45:02.035Z,3.08
2022-10-10T11:47:43.784Z,3.00
2022-10-10T11:50:27.091Z,3.22
2022-10-10T11:53:16.416Z,3.08
2022-10-10T11:56:02.830Z,3.38
2022-10-10T11:58:43.855Z,3.22
2022-10-10T12:01:27.111Z,3.63
2022-10-10T12:04:04.640Z,3.00
2022-10-10T12:06:47.894Z,3.10
2022-10-10T12:09:34.519Z,3.50
2022-10-10T12:12:17.415Z,3.50
2022-10-10T12:17:39.424Z,3.45
2022-10-10T12:20:37.326Z,3.13
2022-10-10T12:23:28.362Z,3.33
2022-10-10T12:26:20.064Z,4.30
2022-10-10T12:29:09.204Z,3.75
2022-10-10T12:31:46.895Z,3.25
2022-10-10T12:34:47.116Z,3.85
2022-10-10T12:37:29.291Z,3.70
2022-10-10T12:40:26.004Z,3.58
2022-10-10T12:43:27.236Z,3.92
2022-10-10T12:46:37.888Z,4.22
2022-10-10T12:49:25.178Z,3.60
2022-10-10T12:52:24.145Z,3.30
2022-10-10T12:55:10.763Z,3.45
2022-10-10T12:57:49.914Z,3.70
2022-10-10T13:00:39.092Z,3.45
2022-10-10T13:03:22.023Z,3.53
2022-10-10T13:08:40.534Z,3.50
2022-10-10T13:11:19.193Z,3.40
2022-10-10T13:13:59.215Z,3.50
2022-10-10T13:16:49.293Z,4.32
2022-10-10T13:19:28.798Z,3.78
2022-10-10T13:22:06.166Z,3.67
2022-10-10T13:24:45.856Z,3.90
2022-10-10T13:27:26.022Z,3.38
2022-10-10T13:30:03.283Z,3.53
2022-10-10T13:32:43.763Z,3.28
2022-10-10T13:35:25.133Z,3.70
2022-10-10T13:38:05.013Z,3.33
2022-10-10T13:40:44.773Z,3.92
2022-10-10T13:43:23.375Z,3.50
2022-10-10T13:46:01.986Z,3.50
2022-10-10T13:48:45.302Z,3.45
2022-10-10T13:51:22.284Z,3.25
2022-10-10T13:53:59.543Z,3.70
2022-10-10T13:56:43.514Z,3.67
2022-10-10T13:59:22.002Z,3.78
2022-10-10T14:02:04.719Z,4.20
2022-10-10T14:04:51.333Z,3.65
2022-10-10T14:07:30.865Z,3.97
2022-10-10T14:10:17.733Z,3.53
2022-10-10T14:12:58.109Z,3.45
2022-10-10T14:15:40.873Z,3.90
2022-10-10T14:18:24.749Z,3.78
2022-10-10T14:21:05.137Z,3.40
2022-10-10T14:23:43.064Z,3.47
2022-10-10T14:26:23.014Z,3.80
2022-10-10T14:29:00.127Z,3.63
2022-10-10T14:31:37.326Z,4.13
2022-10-10T14:34:15.098Z,3.75
2022-10-10T14:36:54.981Z,4.07
2022-10-10T14:39:31.793Z,3.85
2022-10-10T14:42:13.209Z,4.28
2022-10-10T14:44:50.322Z,3.88
2022-10-10T14:47:28.961Z,4.10
2022-10-10T14:50:05.743Z,4.35
2022-10-10T14:52:45.654Z,4.70
2022-10-10T14:55:22.754Z,4.00
2022-10-10T14:58:00.012Z,4.15
2022-10-10T15:00:37.293Z,3.88
2022-10-10T15:03:15.142Z,4.18
2022-10-10T15:05:52.765Z,4.10
2022-10-10T15:08:32.705Z,4.30
2022-10-10T15:11:09.813Z,4.28
2022-10-10T15:13:46.984Z,5.32
2022-10-10T15:16:23.863Z,4.30
2022-10-10T15:19:01.324Z,4.13
2022-10-10T15:21:38.213Z,4.15
2022-10-10T15:24:17.914Z,4.35
2022-10-10T15:26:54.682Z,5.28
2022-10-10T15:29:32.083Z,5.05
2022-10-10T15:32:10.055Z,5.10
2022-10-10T15:34:47.834Z,5.43
2022-10-10T15:37:30.005Z,5.00
2022-10-10T15:40:11.980Z,5.00
2022-10-10T15:42:50.493Z,4.72
2022-10-10T15:45:54.404Z,4.82
2022-10-10T15:48:25.395Z,5.43
2022-10-10T15:51:03.672Z,5.35
2022-10-10T15:53:41.383Z,5.88
2022-10-10T15:56:23.693Z,5.20
2022-10-10T15:59:03.460Z,5.45
2022-10-10T16:01:41.696Z,5.18
2022-10-10T16:04:20.483Z,5.55
2022-10-10T16:09:56.244Z,5.90
2022-10-10T16:12:37.431Z,6.07
2022-10-10T16:15:15.606Z,6.68
2022-10-10T16:17:53.603Z,5.90
2022-10-10T16:20:33.683Z,6.57
2022-10-10T16:23:11.993Z,6.20
2022-10-10T16:25:49.365Z,7.85
2022-10-10T16:28:30.640Z,6.35
2022-10-10T16:31:10.295Z,6.03
2022-10-10T16:33:51.552Z,6.18
2022-10-10T16:36:31.461Z,6.20
2022-10-10T16:39:13.593Z,6.57
2022-10-10T16:41:51.146Z,6.10
2022-10-10T16:44:31.173Z,6.47
2022-10-10T16:47:09.289Z,6.78
2022-10-10T16:49:46.373Z,6.40
2022-10-10T16:52:23.249Z,6.80
2022-10-10T16:55:01.733Z,6.78
2022-10-10T16:57:39.613Z,7.13
2022-10-10T17:00:21.155Z,7.10
2022-10-10T17:02:59.005Z,7.07
2022-10-10T17:05:38.176Z,6.78
2022-10-10T17:08:15.753Z,6.32
2022-10-10T17:10:54.039Z,7.55
2022-10-10T17:13:32.341Z,6.65
2022-10-10T17:19:15.452Z,6.50
2022-10-10T17:21:53.825Z,6.22
2022-10-10T17:24:32.765Z,6.30
2022-10-10T17:27:11.297Z,6.70
2022-10-10T17:29:49.325Z,6.17
2022-10-10T17:32:31.287Z,6.50
2022-10-10T17:35:10.828Z,5.97
2022-10-10T17:37:48.495Z,6.20
2022-10-10T17:40:26.364Z,5.63
2022-10-10T17:43:04.776Z,6.38
2022-10-10T17:45:42.605Z,5.72
2022-10-10T17:48:22.287Z,5.72
2022-10-10T17:50:59.297Z,5.70
2022-10-10T17:53:36.448Z,5.95
2022-10-10T17:56:16.861Z,6.18
2022-10-10T17:58:54.556Z,5.30
2022-10-10T18:01:32.575Z,6.30
2022-10-10T18:04:12.726Z,5.90
2022-10-10T18:06:49.625Z,6.38
2022-10-10T18:09:27.009Z,6.83
2022-10-10T18:12:04.086Z,6.03
2022-10-10T18:14:41.523Z,6.85
2022-10-10T18:17:18.507Z,7.03
2022-10-10T18:19:58.635Z,6.60
2022-10-10T18:22:35.524Z,5.97
2022-10-10T18:25:14.086Z,6.40
2022-10-10T18:27:51.893Z,6.70
2022-10-10T18:30:30.646Z,6.10
2022-10-10T18:33:08.096Z,7.20
2022-10-10T18:35:48.157Z,6.50
2022-10-10T18:38:25.129Z,5.73
2022-10-10T18:41:10.336Z,6.70
2022-10-10T18:43:56.183Z,6.33
2022-10-10T18:46:38.137Z,6.20
2022-10-10T18:49:17.157Z,6.80
2022-10-10T18:51:57.411Z,6.40
2022-10-10T18:54:37.824Z,6.77
2022-10-10T18:57:18.828Z,7.40
2022-10-10T18:59:59.482Z,6.77
2022-10-10T19:02:36.866Z,7.43
2022-10-10T19:05:13.939Z,6.40
2022-10-10T19:07:53.818Z,7.10
2022-10-10T19:10:31.067Z,6.57
2022-10-10T19:13:08.374Z,6.07
2022-10-10T19:15:45.196Z,6.73
2022-10-10T19:18:24.643Z,6.20
2022-10-10T19:21:03.721Z,6.37
2022-10-10T19:23:44.485Z,6.10
2022-10-10T19:26:23.079Z,6.90
2022-10-10T19:29:05.659Z,5.77
2022-10-10T19:31:45.176Z,5.45
2022-10-10T19:34:22.807Z,5.30
2022-10-10T19:37:00.035Z,5.80
2022-10-10T19:39:39.966Z,5.63
2022-10-10T19:42:16.745Z,5.20
2022-10-10T19:44:54.015Z,5.17
2022-10-10T19:47:30.950Z,5.10
2022-10-10T19:50:09.207Z,5.53
